sensor_id;sensor_type;location;lat;lon;timestamp;temperature;humidity
30128;DHT22;16942;53.196;6.592;2022-08-19T00:01:16;15.90;99.90
30128;DHT22;16942;53.196;6.592;2022-08-19T00:03:42;15.90;99.90
30128;DHT22;16942;53.196;6.592;2022-08-19T00:06:08;15.90;99.90
30128;DHT22;16942;53.196;6.592;2022-08-19T00:08:33;15.90;99.90
30128;DHT22;16942;53.196;6.592;2022-08-19T00:10:59;15.90;99.90
30128;DHT22;16942;53.196;6.592;2022-08-19T00:13:25;15.90;99.90
30128;DHT22;16942;53.196;6.592;2022-08-19T00:15:52;15.90;99.90
30128;DHT22;16942;53.196;6.592;2022-08-19T00:18:17;15.90;99.90
30128;DHT22;16942;53.196;6.592;2022-08-19T00:20:43;15.80;99.90
30128;DHT22;16942;53.196;6.592;2022-08-19T00:23:09;15.80;99.90
30128;DHT22;16942;53.196;6.592;2022-08-19T00:25:34;15.80;99.90
30128;DHT22;16942;53.196;6.592;2022-08-19T00:28:02;15.70;99.90
30128;DHT22;16942;53.196;6.592;2022-08-19T00:30:28;15.70;99.90
30128;DHT22;16942;53.196;6.592;2022-08-19T00:32:53;15.70;99.90
30128;DHT22;16942;53.196;6.592;2022-08-19T00:35:22;15.70;99.90
30128;DHT22;16942;53.196;6.592;2022-08-19T00:37:49;15.70;99.90
30128;DHT22;16942;53.196;6.592;2022-08-19T00:40:17;15.70;99.90
30128;DHT22;16942;53.196;6.592;2022-08-19T00:42:45;15.60;99.90
30128;DHT22;16942;53.196;6.592;2022-08-19T00:45:16;15.60;99.90
30128;DHT22;16942;53.196;6.592;2022-08-19T00:47:43;15.60;99.90
30128;DHT22;16942;53.196;6.592;2022-08-19T00:50:11;15.60;99.90
30128;DHT22;16942;53.196;6.592;2022-08-19T00:52:41;15.50;99.90
30128;DHT22;16942;53.196;6.592;2022-08-19T00:55:12;15.50;99.90
30128;DHT22;16942;53.196;6.592;2022-08-19T00:57:42;15.50;99.90
30128;DHT22;16942;53.196;6.592;2022-08-19T01:00:14;15.50;99.90
30128;DHT22;16942;53.196;6.592;2022-08-19T01:02:42;15.40;99.90
30128;DHT22;16942;53.196;6.592;2022-08-19T01:05:17;15.40;99.90
30128;DHT22;16942;53.196;6.592;2022-08-19T01:07:44;15.40;99.90
30128;DHT22;16942;53.196;6.592;2022-08-19T01:10:13;15.40;99.90
30128;DHT22;16942;53.196;6.592;2022-08-19T01:12:39;15.30;99.90
30128;DHT22;16942;53.196;6.592;2022-08-19T01:15:07;15.30;99.90
30128;DHT22;16942;53.196;6.592;2022-08-19T01:17:34;15.30;99.90
30128;DHT22;16942;53.196;6.592;2022-08-19T01:20:04;15.30;99.90
30128;DHT22;16942;53.196;6.592;2022-08-19T01:22:43;15.20;99.90
30128;DHT22;16942;53.196;6.592;2022-08-19T01:25:09;15.20;99.90
30128;DHT22;16942;53.196;6.592;2022-08-19T01:27:43;15.20;99.90
30128;DHT22;16942;53.196;6.592;2022-08-19T01:30:13;15.20;99.90
30128;DHT22;16942;53.196;6.592;2022-08-19T01:32:39;15.20;99.90
30128;DHT22;16942;53.196;6.592;2022-08-19T01:35:05;15.20;99.90
30128;DHT22;16942;53.196;6.592;2022-08-19T01:37:49;15.10;99.90
30128;DHT22;16942;53.196;6.592;2022-08-19T01:40:16;15.10;99.90
30128;DHT22;16942;53.196;6.592;2022-08-19T01:42:42;15.10;99.90
30128;DHT22;16942;53.196;6.592;2022-08-19T01:45:08;15.10;99.90
30128;DHT22;16942;53.196;6.592;2022-08-19T01:47:35;15.10;99.90
30128;DHT22;16942;53.196;6.592;2022-08-19T01:50:02;15.10;99.90
30128;DHT22;16942;53.196;6.592;2022-08-19T01:52:28;15.10;99.90
30128;DHT22;16942;53.196;6.592;2022-08-19T01:54:53;15.10;99.90
30128;DHT22;16942;53.196;6.592;2022-08-19T01:57:19;15.10;99.90
30128;DHT22;16942;53.196;6.592;2022-08-19T01:59:45;15.10;99.90
30128;DHT22;16942;53.196;6.592;2022-08-19T02:02:11;15.10;99.90
30128;DHT22;16942;53.196;6.592;2022-08-19T02:04:38;15.10;99.90
30128;DHT22;16942;53.196;6.592;2022-08-19T02:07:04;15.10;99.90
30128;DHT22;16942;53.196;6.592;2022-08-19T02:09:31;15.10;99.90
30128;DHT22;16942;53.196;6.592;2022-08-19T02:11:57;15.10;99.90
30128;DHT22;16942;53.196;6.592;2022-08-19T02:14:23;15.10;99.90
30128;DHT22;16942;53.196;6.592;2022-08-19T02:16:49;15.10;99.90
30128;DHT22;16942;53.196;6.592;2022-08-19T02:19:15;15.10;99.90
30128;DHT22;16942;53.196;6.592;2022-08-19T02:21:40;15.10;99.90
30128;DHT22;16942;53.196;6.592;2022-08-19T02:24:06;15.10;99.90
30128;DHT22;16942;53.196;6.592;2022-08-19T02:26:32;15.10;99.90
30128;DHT22;16942;53.196;6.592;2022-08-19T02:28:58;15.10;99.90
30128;DHT22;16942;53.196;6.592;2022-08-19T02:31:26;15.10;99.90
30128;DHT22;16942;53.196;6.592;2022-08-19T02:33:54;15.10;99.90
30128;DHT22;16942;53.196;6.592;2022-08-19T02:36:20;15.00;99.90
30128;DHT22;16942;53.196;6.592;2022-08-19T02:38:46;15.00;99.90
30128;DHT22;16942;53.196;6.592;2022-08-19T02:41:18;15.00;99.90
30128;DHT22;16942;53.196;6.592;2022-08-19T02:43:44;15.00;99.90
30128;DHT22;16942;53.196;6.592;2022-08-19T02:46:26;15.00;99.90
30128;DHT22;16942;53.196;6.592;2022-08-19T02:48:55;15.00;99.90
30128;DHT22;16942;53.196;6.592;2022-08-19T02:51:24;15.00;99.90
30128;DHT22;16942;53.196;6.592;2022-08-19T02:53:50;15.00;99.90
30128;DHT22;16942;53.196;6.592;2022-08-19T02:56:17;15.00;99.90
30128;DHT22;16942;53.196;6.592;2022-08-19T02:58:43;15.00;99.90
30128;DHT22;16942;53.196;6.592;2022-08-19T03:01:09;15.00;99.90
30128;DHT22;16942;53.196;6.592;2022-08-19T03:03:36;15.00;99.90
30128;DHT22;16942;53.196;6.592;2022-08-19T03:06:11;15.00;99.90
30128;DHT22;16942;53.196;6.592;2022-08-19T03:08:42;14.90;99.90
30128;DHT22;16942;53.196;6.592;2022-08-19T03:11:17;14.90;99.90
30128;DHT22;16942;53.196;6.592;2022-08-19T03:13:43;14.90;99.90
30128;DHT22;16942;53.196;6.592;2022-08-19T03:16:10;14.90;99.90
30128;DHT22;16942;53.196;6.592;2022-08-19T03:18:36;15.00;99.90
30128;DHT22;16942;53.196;6.592;2022-08-19T03:21:02;14.90;99.90
30128;DHT22;16942;53.196;6.592;2022-08-19T03:23:28;14.90;99.90
30128;DHT22;16942;53.196;6.592;2022-08-19T03:25:53;14.90;99.90
30128;DHT22;16942;53.196;6.592;2022-08-19T03:28:20;14.90;99.90
30128;DHT22;16942;53.196;6.592;2022-08-19T03:31:12;14.90;99.90
30128;DHT22;16942;53.196;6.592;2022-08-19T03:33:39;14.90;99.90
30128;DHT22;16942;53.196;6.592;2022-08-19T03:36:07;14.90;99.90
30128;DHT22;16942;53.196;6.592;2022-08-19T03:38:38;14.90;99.90
30128;DHT22;16942;53.196;6.592;2022-08-19T03:41:06;14.90;99.90
30128;DHT22;16942;53.196;6.592;2022-08-19T03:43:33;14.90;99.90
30128;DHT22;16942;53.196;6.592;2022-08-19T03:46:01;14.90;99.90
30128;DHT22;16942;53.196;6.592;2022-08-19T03:48:27;14.90;99.90
30128;DHT22;16942;53.196;6.592;2022-08-19T03:50:53;14.90;99.90
30128;DHT22;16942;53.196;6.592;2022-08-19T03:53:19;14.90;99.90
30128;DHT22;16942;53.196;6.592;2022-08-19T03:55:44;14.90;99.90
30128;DHT22;16942;53.196;6.592;2022-08-19T03:58:10;14.90;99.90
30128;DHT22;16942;53.196;6.592;2022-08-19T04:00:36;14.90;99.90
30128;DHT22;16942;53.196;6.592;2022-08-19T04:03:02;14.90;99.90
30128;DHT22;16942;53.196;6.592;2022-08-19T04:05:28;14.90;99.90
30128;DHT22;16942;53.196;6.592;2022-08-19T04:07:54;14.90;99.90
30128;DHT22;16942;53.196;6.592;2022-08-19T04:10:22;14.90;99.90
30128;DHT22;16942;53.196;6.592;2022-08-19T04:12:49;14.80;99.90
30128;DHT22;16942;53.196;6.592;2022-08-19T04:15:14;14.90;99.90
30128;DHT22;16942;53.196;6.592;2022-08-19T04:17:40;14.90;99.90
30128;DHT22;16942;53.196;6.592;2022-08-19T04:20:06;14.80;99.90
30128;DHT22;16942;53.196;6.592;2022-08-19T04:22:32;14.80;99.90
30128;DHT22;16942;53.196;6.592;2022-08-19T04:24:58;14.80;99.90
30128;DHT22;16942;53.196;6.592;2022-08-19T04:27:23;14.80;99.90
30128;DHT22;16942;53.196;6.592;2022-08-19T04:29:49;14.80;99.90
30128;DHT22;16942;53.196;6.592;2022-08-19T04:32:15;14.70;99.90
30128;DHT22;16942;53.196;6.592;2022-08-19T04:34:41;14.70;99.90
30128;DHT22;16942;53.196;6.592;2022-08-19T04:37:08;14.70;99.90
30128;DHT22;16942;53.196;6.592;2022-08-19T04:39:37;14.80;99.90
30128;DHT22;16942;53.196;6.592;2022-08-19T04:42:21;14.70;99.90
30128;DHT22;16942;53.196;6.592;2022-08-19T04:45:07;14.80;99.90
30128;DHT22;16942;53.196;6.592;2022-08-19T04:47:37;14.70;99.90
30128;DHT22;16942;53.196;6.592;2022-08-19T04:50:04;14.70;99.90
30128;DHT22;16942;53.196;6.592;2022-08-19T04:52:30;14.70;99.90
30128;DHT22;16942;53.196;6.592;2022-08-19T04:54:57;14.70;99.90
30128;DHT22;16942;53.196;6.592;2022-08-19T04:57:23;14.70;99.90
30128;DHT22;16942;53.196;6.592;2022-08-19T04:59:53;14.70;99.90
30128;DHT22;16942;53.196;6.592;2022-08-19T05:02:18;14.70;99.90
30128;DHT22;16942;53.196;6.592;2022-08-19T05:04:44;14.70;99.90
30128;DHT22;16942;53.196;6.592;2022-08-19T05:07:09;14.70;99.90
30128;DHT22;16942;53.196;6.592;2022-08-19T05:09:35;14.80;99.90
30128;DHT22;16942;53.196;6.592;2022-08-19T05:12:01;14.80;99.90
30128;DHT22;16942;53.196;6.592;2022-08-19T05:14:27;14.90;99.90
30128;DHT22;16942;53.196;6.592;2022-08-19T05:16:54;15.00;99.90
30128;DHT22;16942;53.196;6.592;2022-08-19T05:19:19;15.00;99.90
30128;DHT22;16942;53.196;6.592;2022-08-19T05:22:04;15.10;99.90
30128;DHT22;16942;53.196;6.592;2022-08-19T05:24:48;15.20;99.90
30128;DHT22;16942;53.196;6.592;2022-08-19T05:27:14;15.20;99.90
30128;DHT22;16942;53.196;6.592;2022-08-19T05:29:39;15.30;99.90
30128;DHT22;16942;53.196;6.592;2022-08-19T05:32:06;15.30;99.90
30128;DHT22;16942;53.196;6.592;2022-08-19T05:34:36;15.30;99.90
30128;DHT22;16942;53.196;6.592;2022-08-19T05:37:03;15.40;99.90
30128;DHT22;16942;53.196;6.592;2022-08-19T05:39:31;15.50;99.90
30128;DHT22;16942;53.196;6.592;2022-08-19T05:42:06;15.60;99.90
30128;DHT22;16942;53.196;6.592;2022-08-19T05:44:34;15.70;99.90
30128;DHT22;16942;53.196;6.592;2022-08-19T05:47:01;15.70;99.90
30128;DHT22;16942;53.196;6.592;2022-08-19T05:49:28;15.70;99.90
30128;DHT22;16942;53.196;6.592;2022-08-19T05:51:55;15.80;99.90
30128;DHT22;16942;53.196;6.592;2022-08-19T05:54:21;15.90;99.90
30128;DHT22;16942;53.196;6.592;2022-08-19T05:56:49;15.90;99.90
30128;DHT22;16942;53.196;6.592;2022-08-19T05:59:16;16.00;99.90
30128;DHT22;16942;53.196;6.592;2022-08-19T06:01:45;16.10;99.90
30128;DHT22;16942;53.196;6.592;2022-08-19T06:04:12;16.20;99.90
30128;DHT22;16942;53.196;6.592;2022-08-19T06:06:41;16.30;99.90
30128;DHT22;16942;53.196;6.592;2022-08-19T06:09:07;16.30;99.90
30128;DHT22;16942;53.196;6.592;2022-08-19T06:11:42;16.50;99.90
30128;DHT22;16942;53.196;6.592;2022-08-19T06:14:13;16.50;99.90
30128;DHT22;16942;53.196;6.592;2022-08-19T06:16:41;16.60;99.90
30128;DHT22;16942;53.196;6.592;2022-08-19T06:19:09;16.60;99.90
30128;DHT22;16942;53.196;6.592;2022-08-19T06:21:38;16.70;99.90
30128;DHT22;16942;53.196;6.592;2022-08-19T06:24:08;16.70;99.90
30128;DHT22;16942;53.196;6.592;2022-08-19T06:26:36;16.80;99.90
30128;DHT22;16942;53.196;6.592;2022-08-19T06:29:03;16.90;99.90
30128;DHT22;16942;53.196;6.592;2022-08-19T06:31:31;17.00;99.90
30128;DHT22;16942;53.196;6.592;2022-08-19T06:34:00;17.00;99.90
30128;DHT22;16942;53.196;6.592;2022-08-19T06:36:30;17.20;99.90
30128;DHT22;16942;53.196;6.592;2022-08-19T06:39:01;17.20;99.90
30128;DHT22;16942;53.196;6.592;2022-08-19T06:41:29;17.30;99.90
30128;DHT22;16942;53.196;6.592;2022-08-19T06:43:56;17.40;99.90
30128;DHT22;16942;53.196;6.592;2022-08-19T06:46:22;17.50;99.90
30128;DHT22;16942;53.196;6.592;2022-08-19T06:48:48;17.60;99.90
30128;DHT22;16942;53.196;6.592;2022-08-19T06:51:17;17.60;99.90
30128;DHT22;16942;53.196;6.592;2022-08-19T06:53:47;17.60;99.90
30128;DHT22;16942;53.196;6.592;2022-08-19T06:56:19;17.70;99.90
30128;DHT22;16942;53.196;6.592;2022-08-19T06:58:46;17.70;99.90
30128;DHT22;16942;53.196;6.592;2022-08-19T07:01:12;17.80;99.90
30128;DHT22;16942;53.196;6.592;2022-08-19T07:03:38;17.90;99.90
30128;DHT22;16942;53.196;6.592;2022-08-19T07:06:10;18.00;99.90
30128;DHT22;16942;53.196;6.592;2022-08-19T07:08:37;18.10;99.90
30128;DHT22;16942;53.196;6.592;2022-08-19T07:11:07;18.20;99.90
30128;DHT22;16942;53.196;6.592;2022-08-19T07:13:34;18.30;99.90
30128;DHT22;16942;53.196;6.592;2022-08-19T07:16:06;18.40;99.90
30128;DHT22;16942;53.196;6.592;2022-08-19T07:18:33;18.50;99.90
30128;DHT22;16942;53.196;6.592;2022-08-19T07:21:15;18.50;99.90
30128;DHT22;16942;53.196;6.592;2022-08-19T07:23:42;18.60;99.90
30128;DHT22;16942;53.196;6.592;2022-08-19T07:26:13;18.70;99.90
30128;DHT22;16942;53.196;6.592;2022-08-19T07:28:40;18.70;99.90
30128;DHT22;16942;53.196;6.592;2022-08-19T07:31:07;18.80;99.90
30128;DHT22;16942;53.196;6.592;2022-08-19T07:33:33;18.80;99.90
30128;DHT22;16942;53.196;6.592;2022-08-19T07:35:59;19.00;99.90
30128;DHT22;16942;53.196;6.592;2022-08-19T07:38:25;19.10;99.90
30128;DHT22;16942;53.196;6.592;2022-08-19T07:40:50;19.10;99.90
30128;DHT22;16942;53.196;6.592;2022-08-19T07:43:17;19.30;99.90
30128;DHT22;16942;53.196;6.592;2022-08-19T07:45:46;19.40;99.90
30128;DHT22;16942;53.196;6.592;2022-08-19T07:48:12;19.50;99.90
30128;DHT22;16942;53.196;6.592;2022-08-19T07:50:38;19.60;99.90
30128;DHT22;16942;53.196;6.592;2022-08-19T07:53:04;19.70;99.90
30128;DHT22;16942;53.196;6.592;2022-08-19T07:55:29;19.80;99.90
30128;DHT22;16942;53.196;6.592;2022-08-19T07:57:55;19.80;99.90
30128;DHT22;16942;53.196;6.592;2022-08-19T08:00:21;19.90;99.90
30128;DHT22;16942;53.196;6.592;2022-08-19T08:02:47;20.00;99.90
30128;DHT22;16942;53.196;6.592;2022-08-19T08:05:12;20.00;99.90
30128;DHT22;16942;53.196;6.592;2022-08-19T08:07:56;20.10;99.90
30128;DHT22;16942;53.196;6.592;2022-08-19T08:10:41;20.10;99.90
30128;DHT22;16942;53.196;6.592;2022-08-19T08:13:07;20.20;99.90
30128;DHT22;16942;53.196;6.592;2022-08-19T08:15:32;20.30;99.90
30128;DHT22;16942;53.196;6.592;2022-08-19T08:17:58;20.40;99.90
30128;DHT22;16942;53.196;6.592;2022-08-19T08:20:24;20.60;99.90
30128;DHT22;16942;53.196;6.592;2022-08-19T08:22:49;20.70;99.90
30128;DHT22;16942;53.196;6.592;2022-08-19T08:25:35;20.80;99.90
30128;DHT22;16942;53.196;6.592;2022-08-19T08:28:01;20.80;99.90
30128;DHT22;16942;53.196;6.592;2022-08-19T08:30:29;20.90;99.90
30128;DHT22;16942;53.196;6.592;2022-08-19T08:32:55;21.00;99.90
30128;DHT22;16942;53.196;6.592;2022-08-19T08:35:22;21.10;99.90
30128;DHT22;16942;53.196;6.592;2022-08-19T08:37:49;21.20;99.90
30128;DHT22;16942;53.196;6.592;2022-08-19T08:46:08;21.40;99.90
30128;DHT22;16942;53.196;6.592;2022-08-19T08:48:58;21.50;99.90
30128;DHT22;16942;53.196;6.592;2022-08-19T08:51:36;21.50;99.90
30128;DHT22;16942;53.196;6.592;2022-08-19T08:54:06;21.70;99.90
30128;DHT22;16942;53.196;6.592;2022-08-19T08:56:33;21.80;99.90
30128;DHT22;16942;53.196;6.592;2022-08-19T09:01:24;22.00;99.90
30128;DHT22;16942;53.196;6.592;2022-08-19T09:03:50;22.10;99.90
30128;DHT22;16942;53.196;6.592;2022-08-19T09:07:21;22.00;99.90
30128;DHT22;16942;53.196;6.592;2022-08-19T09:09:42;22.10;99.90
30128;DHT22;16942;53.196;6.592;2022-08-19T09:14:45;22.30;99.90
30128;DHT22;16942;53.196;6.592;2022-08-19T09:17:14;22.40;99.90
30128;DHT22;16942;53.196;6.592;2022-08-19T09:19:55;22.50;99.90
30128;DHT22;16942;53.196;6.592;2022-08-19T09:22:22;22.50;99.90
30128;DHT22;16942;53.196;6.592;2022-08-19T09:24:49;22.60;99.90
30128;DHT22;16942;53.196;6.592;2022-08-19T09:27:15;22.60;99.90
30128;DHT22;16942;53.196;6.592;2022-08-19T09:29:41;22.70;99.90
30128;DHT22;16942;53.196;6.592;2022-08-19T09:32:07;22.70;99.90
30128;DHT22;16942;53.196;6.592;2022-08-19T09:34:32;22.80;99.90
30128;DHT22;16942;53.196;6.592;2022-08-19T09:36:58;23.00;99.90
30128;DHT22;16942;53.196;6.592;2022-08-19T09:39:25;23.00;99.90
30128;DHT22;16942;53.196;6.592;2022-08-19T09:41:51;23.00;99.90
30128;DHT22;16942;53.196;6.592;2022-08-19T09:44:17;23.10;99.90
30128;DHT22;16942;53.196;6.592;2022-08-19T09:46:42;23.30;99.90
30128;DHT22;16942;53.196;6.592;2022-08-19T09:49:08;23.40;99.90
30128;DHT22;16942;53.196;6.592;2022-08-19T09:51:34;23.50;99.90
30128;DHT22;16942;53.196;6.592;2022-08-19T09:54:01;23.60;99.90
30128;DHT22;16942;53.196;6.592;2022-08-19T09:56:28;23.60;99.90
30128;DHT22;16942;53.196;6.592;2022-08-19T09:58:57;23.70;99.90
30128;DHT22;16942;53.196;6.592;2022-08-19T10:01:27;23.80;99.90
30128;DHT22;16942;53.196;6.592;2022-08-19T10:03:56;23.80;99.90
30128;DHT22;16942;53.196;6.592;2022-08-19T10:06:24;23.90;99.90
30128;DHT22;16942;53.196;6.592;2022-08-19T10:08:51;24.00;99.90
30128;DHT22;16942;53.196;6.592;2022-08-19T10:11:18;24.00;99.90
30128;DHT22;16942;53.196;6.592;2022-08-19T10:13:44;24.10;99.90
30128;DHT22;16942;53.196;6.592;2022-08-19T10:16:13;24.30;99.90
30128;DHT22;16942;53.196;6.592;2022-08-19T10:18:40;24.40;99.90
30128;DHT22;16942;53.196;6.592;2022-08-19T10:23:41;24.50;99.90
30128;DHT22;16942;53.196;6.592;2022-08-19T10:26:11;24.70;99.90
30128;DHT22;16942;53.196;6.592;2022-08-19T10:28:37;24.80;99.90
30128;DHT22;16942;53.196;6.592;2022-08-19T10:31:05;24.90;99.90
30128;DHT22;16942;53.196;6.592;2022-08-19T10:33:31;24.90;99.90
30128;DHT22;16942;53.196;6.592;2022-08-19T10:36:06;25.00;99.90
30128;DHT22;16942;53.196;6.592;2022-08-19T10:38:32;25.20;99.90
30128;DHT22;16942;53.196;6.592;2022-08-19T10:41:07;25.40;99.90
30128;DHT22;16942;53.196;6.592;2022-08-19T10:43:33;25.60;99.90
30128;DHT22;16942;53.196;6.592;2022-08-19T10:46:02;25.80;99.90
30128;DHT22;16942;53.196;6.592;2022-08-19T10:48:29;26.00;99.90
30128;DHT22;16942;53.196;6.592;2022-08-19T10:50:57;26.30;99.90
30128;DHT22;16942;53.196;6.592;2022-08-19T10:53:41;26.30;99.90
30128;DHT22;16942;53.196;6.592;2022-08-19T10:56:07;26.40;99.90
30128;DHT22;16942;53.196;6.592;2022-08-19T10:58:51;26.50;99.90
30128;DHT22;16942;53.196;6.592;2022-08-19T11:01:16;26.80;99.90
30128;DHT22;16942;53.196;6.592;2022-08-19T11:03:42;27.00;99.90
30128;DHT22;16942;53.196;6.592;2022-08-19T11:06:08;27.30;99.90
30128;DHT22;16942;53.196;6.592;2022-08-19T11:08:35;27.40;99.90
30128;DHT22;16942;53.196;6.592;2022-08-19T11:11:04;27.60;99.90
30128;DHT22;16942;53.196;6.592;2022-08-19T11:13:33;27.80;99.90
30128;DHT22;16942;53.196;6.592;2022-08-19T11:18:32;27.40;99.90
30128;DHT22;16942;53.196;6.592;2022-08-19T11:21:16;27.20;99.90
30128;DHT22;16942;53.196;6.592;2022-08-19T11:23:44;27.40;99.90
30128;DHT22;16942;53.196;6.592;2022-08-19T11:26:11;27.60;99.90
30128;DHT22;16942;53.196;6.592;2022-08-19T11:28:37;27.90;99.90
30128;DHT22;16942;53.196;6.592;2022-08-19T11:31:03;28.10;99.90
30128;DHT22;16942;53.196;6.592;2022-08-19T11:33:32;28.30;99.90
30128;DHT22;16942;53.196;6.592;2022-08-19T11:35:58;28.50;99.90
30128;DHT22;16942;53.196;6.592;2022-08-19T11:38:27;28.70;99.90
30128;DHT22;16942;53.196;6.592;2022-08-19T11:40:58;28.90;99.90
30128;DHT22;16942;53.196;6.592;2022-08-19T11:43:24;28.90;99.90
30128;DHT22;16942;53.196;6.592;2022-08-19T11:45:52;28.60;99.90
30128;DHT22;16942;53.196;6.592;2022-08-19T11:48:18;28.30;99.90
30128;DHT22;16942;53.196;6.592;2022-08-19T11:50:50;27.80;99.90
30128;DHT22;16942;53.196;6.592;2022-08-19T11:53:19;27.40;99.90
30128;DHT22;16942;53.196;6.592;2022-08-19T11:55:46;27.10;99.90
30128;DHT22;16942;53.196;6.592;2022-08-19T11:58:13;26.80;99.90
30128;DHT22;16942;53.196;6.592;2022-08-19T12:00:40;26.60;99.90
30128;DHT22;16942;53.196;6.592;2022-08-19T12:03:06;26.40;99.90
30128;DHT22;16942;53.196;6.592;2022-08-19T12:05:31;26.30;99.90
30128;DHT22;16942;53.196;6.592;2022-08-19T12:07:57;26.20;99.90
30128;DHT22;16942;53.196;6.592;2022-08-19T12:10:23;26.20;99.90
30128;DHT22;16942;53.196;6.592;2022-08-19T12:12:49;26.30;99.90
30128;DHT22;16942;53.196;6.592;2022-08-19T12:15:15;26.30;99.90
30128;DHT22;16942;53.196;6.592;2022-08-19T12:17:41;26.40;99.90
30128;DHT22;16942;53.196;6.592;2022-08-19T12:20:09;26.40;99.90
30128;DHT22;16942;53.196;6.592;2022-08-19T12:22:36;26.40;99.90
30128;DHT22;16942;53.196;6.592;2022-08-19T12:25:03;26.30;99.90
30128;DHT22;16942;53.196;6.592;2022-08-19T12:27:30;26.30;99.90
30128;DHT22;16942;53.196;6.592;2022-08-19T12:29:56;26.30;99.90
30128;DHT22;16942;53.196;6.592;2022-08-19T12:32:22;26.50;99.90
30128;DHT22;16942;53.196;6.592;2022-08-19T12:34:50;26.50;99.90
30128;DHT22;16942;53.196;6.592;2022-08-19T12:37:15;26.50;99.90
30128;DHT22;16942;53.196;6.592;2022-08-19T12:39:42;26.50;99.90
30128;DHT22;16942;53.196;6.592;2022-08-19T12:42:10;26.30;99.90
30128;DHT22;16942;53.196;6.592;2022-08-19T12:44:37;26.30;99.90
30128;DHT22;16942;53.196;6.592;2022-08-19T12:47:03;26.30;99.90
30128;DHT22;16942;53.196;6.592;2022-08-19T12:49:30;26.30;99.90
30128;DHT22;16942;53.196;6.592;2022-08-19T12:52:02;26.60;99.90
30128;DHT22;16942;53.196;6.592;2022-08-19T12:54:29;26.80;99.90
30128;DHT22;16942;53.196;6.592;2022-08-19T12:56:59;26.90;99.90
30128;DHT22;16942;53.196;6.592;2022-08-19T12:59:25;26.80;99.90
30128;DHT22;16942;53.196;6.592;2022-08-19T13:01:51;26.80;99.90
30128;DHT22;16942;53.196;6.592;2022-08-19T13:04:17;26.70;99.90
30128;DHT22;16942;53.196;6.592;2022-08-19T13:06:43;26.70;99.90
30128;DHT22;16942;53.196;6.592;2022-08-19T13:09:09;26.60;99.90
30128;DHT22;16942;53.196;6.592;2022-08-19T13:11:36;26.60;99.90
30128;DHT22;16942;53.196;6.592;2022-08-19T13:14:03;26.60;99.90
30128;DHT22;16942;53.196;6.592;2022-08-19T13:16:29;26.60;99.90
30128;DHT22;16942;53.196;6.592;2022-08-19T13:18:56;26.50;99.90
30128;DHT22;16942;53.196;6.592;2022-08-19T13:21:26;26.60;99.90
30128;DHT22;16942;53.196;6.592;2022-08-19T13:23:53;26.70;99.90
30128;DHT22;16942;53.196;6.592;2022-08-19T13:26:20;27.60;99.90
30128;DHT22;16942;53.196;6.592;2022-08-19T13:28:45;29.20;99.90
30128;DHT22;16942;53.196;6.592;2022-08-19T13:31:32;29.80;99.90
30128;DHT22;16942;53.196;6.592;2022-08-19T13:34:24;29.60;99.90
30128;DHT22;16942;53.196;6.592;2022-08-19T13:36:52;29.20;99.90
30128;DHT22;16942;53.196;6.592;2022-08-19T13:39:18;28.80;99.90
30128;DHT22;16942;53.196;6.592;2022-08-19T13:41:45;28.30;99.90
30128;DHT22;16942;53.196;6.592;2022-08-19T13:44:15;28.00;99.90
30128;DHT22;16942;53.196;6.592;2022-08-19T13:46:44;27.70;99.90
30128;DHT22;16942;53.196;6.592;2022-08-19T13:49:12;27.50;99.90
30128;DHT22;16942;53.196;6.592;2022-08-19T13:51:39;27.20;99.90
30128;DHT22;16942;53.196;6.592;2022-08-19T13:54:08;26.90;99.90
30128;DHT22;16942;53.196;6.592;2022-08-19T13:56:43;26.60;99.90
30128;DHT22;16942;53.196;6.592;2022-08-19T13:59:09;26.40;99.90
30128;DHT22;16942;53.196;6.592;2022-08-19T14:01:35;26.10;99.90
30128;DHT22;16942;53.196;6.592;2022-08-19T14:04:02;26.00;99.90
30128;DHT22;16942;53.196;6.592;2022-08-19T14:06:28;25.80;99.90
30128;DHT22;16942;53.196;6.592;2022-08-19T14:08:53;25.70;99.90
30128;DHT22;16942;53.196;6.592;2022-08-19T14:11:19;25.60;99.90
30128;DHT22;16942;53.196;6.592;2022-08-19T14:13:45;25.50;99.90
30128;DHT22;16942;53.196;6.592;2022-08-19T14:16:12;25.50;99.90
30128;DHT22;16942;53.196;6.592;2022-08-19T14:18:39;25.40;99.90
30128;DHT22;16942;53.196;6.592;2022-08-19T14:21:06;25.30;99.90
30128;DHT22;16942;53.196;6.592;2022-08-19T14:23:33;25.20;99.90
30128;DHT22;16942;53.196;6.592;2022-08-19T14:26:12;25.20;99.90
30128;DHT22;16942;53.196;6.592;2022-08-19T14:28:39;25.10;99.90
30128;DHT22;16942;53.196;6.592;2022-08-19T14:31:10;24.90;99.90
30128;DHT22;16942;53.196;6.592;2022-08-19T14:33:36;24.90;99.90
30128;DHT22;16942;53.196;6.592;2022-08-19T14:36:02;24.90;99.90
30128;DHT22;16942;53.196;6.592;2022-08-19T14:38:28;25.00;99.90
30128;DHT22;16942;53.196;6.592;2022-08-19T14:41:07;25.20;99.90
30128;DHT22;16942;53.196;6.592;2022-08-19T14:43:33;25.50;99.90
30128;DHT22;16942;53.196;6.592;2022-08-19T14:45:59;25.60;99.90
30128;DHT22;16942;53.196;6.592;2022-08-19T14:48:25;25.70;99.90
30128;DHT22;16942;53.196;6.592;2022-08-19T14:50:51;25.70;99.90
30128;DHT22;16942;53.196;6.592;2022-08-19T14:53:17;25.70;99.90
30128;DHT22;16942;53.196;6.592;2022-08-19T14:55:45;25.90;99.90
30128;DHT22;16942;53.196;6.592;2022-08-19T14:58:11;25.90;99.90
30128;DHT22;16942;53.196;6.592;2022-08-19T15:00:37;25.90;99.90
30128;DHT22;16942;53.196;6.592;2022-08-19T15:03:03;25.90;99.90
30128;DHT22;16942;53.196;6.592;2022-08-19T15:05:29;25.90;99.90
30128;DHT22;16942;53.196;6.592;2022-08-19T15:07:54;26.10;99.90
30128;DHT22;16942;53.196;6.592;2022-08-19T15:10:22;26.90;99.90
30128;DHT22;16942;53.196;6.592;2022-08-19T15:12:48;28.00;99.90
30128;DHT22;16942;53.196;6.592;2022-08-19T15:15:15;29.10;99.90
30128;DHT22;16942;53.196;6.592;2022-08-19T15:17:44;30.30;99.90
30128;DHT22;16942;53.196;6.592;2022-08-19T15:20:13;31.20;99.90
30128;DHT22;16942;53.196;6.592;2022-08-19T15:22:39;31.60;99.90
30128;DHT22;16942;53.196;6.592;2022-08-19T15:25:07;31.20;99.90
30128;DHT22;16942;53.196;6.592;2022-08-19T15:27:33;30.40;99.90
30128;DHT22;16942;53.196;6.592;2022-08-19T15:30:00;29.80;99.90
30128;DHT22;16942;53.196;6.592;2022-08-19T15:32:25;29.00;99.90
30128;DHT22;16942;53.196;6.592;2022-08-19T15:34:53;28.30;99.90
30128;DHT22;16942;53.196;6.592;2022-08-19T15:37:19;27.90;99.90
30128;DHT22;16942;53.196;6.592;2022-08-19T15:39:47;27.80;99.90
30128;DHT22;16942;53.196;6.592;2022-08-19T15:42:13;27.70;99.90
30128;DHT22;16942;53.196;6.592;2022-08-19T15:44:38;27.60;99.90
30128;DHT22;16942;53.196;6.592;2022-08-19T15:47:04;27.60;99.90
30128;DHT22;16942;53.196;6.592;2022-08-19T15:49:30;27.50;99.90
30128;DHT22;16942;53.196;6.592;2022-08-19T15:51:56;27.50;99.90